• Join FlightAware (Why Join?)
  • Login
  • US Flag 
10:17AM EDT


 

Airport Tracker/Info


-or-


 

Live Flight TrackerFlight Track Log ✈ CPZ5750 ✈ 05-Sep-2013 ✈ KIND - KMSP

Flight Track Log - Related Links

Times and Time Zones

All times are in EDT time to prevent confusion due to time zone crossing. See the CPZ5750 flight status page for this flight to view local times or setup timezone preferences in your user account.

Time Position Orientation Groundspeed Altitude Reporting Facility
EDT Latitude Longitude Course Direction KTS MPH feet Rate Location/Type
07:50PM 39.7000 -86.3167 218° Southwest 169 194 1,300  Level Indianapolis TRACON
07:51PM 39.6833 -86.3333 218° Southwest 167 192 2,300 1,860 Climbing Indianapolis TRACON
07:52PM 39.6642 -86.3706 236° Southwest 180 207 3,800 2,340 Climbing Indianapolis Center
07:53PM 39.6303 -86.4411 238° Southwest 238 274 6,700 3,300 Climbing Indianapolis Center
07:54PM 39.7125 -86.4733 343° North 268 308 10,600 2,580 Climbing Indianapolis Center
07:55PM 39.8022 -86.4825 356° North 317 365 12,100 1,980 Climbing Indianapolis Center
07:56PM 39.8986 -86.4903 356° North 342 394 14,700 2,340 Climbing Indianapolis Center
07:57PM 39.9939 -86.5278 343° North 359 413 16,900 2,040 Climbing Indianapolis Center
07:58PM 40.0906 -86.5792 338° Northwest 369 425 19,000 1,920 Climbing Indianapolis Center
07:59PM 40.1883 -86.6325 337° Northwest 379 436 20,900 1,800 Climbing Chicago Center
08:00PM 40.2914 -86.6881 338° Northwest 397 457 22,700 1,740 Climbing Chicago Center
08:01PM 40.3961 -86.7433 338° Northwest 405 466 24,600 1,740 Climbing Chicago Center
08:02PM 40.5239 -86.8128 338° Northwest 415 478 26,400 1,500 Climbing Chicago Center
08:03PM 40.6311 -86.8717 337° Northwest 418 481 27,800 1,200 Climbing Chicago Center
08:04PM 40.7308 -86.9267 337° Northwest 428 493 28,900 1,320 Climbing Chicago Center
08:05PM 40.8619 -86.9978 338° Northwest 425 489 30,600 1,440 Climbing Chicago Center
08:06PM 40.9708 -87.0542 339° North 423 487 31,900 1,200 Climbing Chicago Center
08:07PM 41.0756 -87.1122 337° Northwest 415 478 33,200 960 Climbing Chicago Center
08:08PM 41.1783 -87.1714 337° Northwest 409 471 34,000 360 Climbing Chicago Center
08:09PM 41.2819 -87.2308 337° Northwest 409 471 34,000  Level Chicago Center
08:10PM 41.4058 -87.2989 338° Northwest 406 467 34,000  Level Chicago Center
08:11PM 41.5092 -87.3581 337° Northwest 408 470 34,000  Level Chicago Center
08:12PM 41.6144 -87.4167 337° Northwest 411 473 34,000  Level Chicago Center
08:13PM 41.7208 -87.4767 337° Northwest 417 480 34,000  Level Chicago Center
08:15PM 41.8483 -87.5492 337° Northwest 418 481 34,000  Level Chicago Center
08:16PM 41.9539 -87.6100 337° Northwest 418 481 34,000  Level Chicago Center
08:17PM 42.0603 -87.6711 337° Northwest 419 482 34,000  Level Chicago Center
08:18PM 42.1669 -87.7314 337° Northwest 419 482 34,000  Level Chicago Center
08:19PM 42.2708 -87.7931 336° Northwest 414 476 34,000  Level Chicago Center
08:20PM 42.3928 -87.8625 337° Northwest 401 461 34,000  Level Chicago Center
08:21PM 42.4956 -87.9219 337° Northwest 404 465 34,000  Level Chicago Center
08:22PM 42.5961 -87.9800 337° Northwest 398 458 34,000  Level Chicago Center
08:23PM 42.6964 -88.0383 337° Northwest 397 457 34,000  Level Chicago Center
08:24PM 42.7983 -88.0969 337° Northwest 399 459 34,000  Level Chicago Center
08:25PM 42.9125 -88.1656 336° Northwest 396 456 34,000  Level Chicago Center
08:26PM 43.0147 -88.2244 337° Northwest 399 459 34,000  Level Chicago Center
08:27PM 43.1192 -88.2822 338° Northwest 403 464 34,000  Level Chicago Center
08:28PM 43.2222 -88.3406 338° Northwest 402 463 34,000  Level Chicago Center
08:29PM 43.3078 -88.4653 313° West 407 468 34,000  Level Chicago Center
08:30PM 43.3736 -88.5894 306° West 402 463 34,000  Level Chicago Center
08:31PM 43.4417 -88.7186 306° West 412 474 34,000  Level Chicago Center
08:32PM 43.5139 -88.8578 306° West 411 473 34,000  Level Chicago Center
08:33PM 43.5811 -88.9861 306° West 415 478 34,000  Level Chicago Center
08:34PM 43.6472 -89.1133 306° West 413 475 34,000  Level Chicago Center
08:35PM 43.7250 -89.2681 305° West 412 474 34,000  Level Chicago Center
08:36PM 43.7914 -89.3972 305° West 415 478 34,000  Level Chicago Center
08:37PM 43.8575 -89.5261 305° West 417 480 34,000  Level Chicago Center
08:38PM 43.9203 -89.6575 304° West 415 478 34,000  Level Chicago Center
08:39PM 43.9806 -89.7928 302° West 415 478 34,000  Level Chicago Center
08:40PM 44.0519 -89.9531 302° West 411 473 34,000  Level Chicago Center
08:41PM 44.1125 -90.0892 302° West 414 476 34,000  Level Chicago Center
08:42PM 44.1389 -90.1467 303° West 421 484 34,000  Level Minneapolis Center
08:43PM 44.2106 -90.3114 301° West 419 482 34,000  Level Minneapolis Center
08:44PM 44.2714 -90.4503 301° West 425 489 34,000  Level Minneapolis Center
08:45PM 44.3314 -90.5889 301° West 420 483 34,000  Level Minneapolis Center
08:46PM 44.3928 -90.7286 302° West 423 487 34,000  Level Minneapolis Center
08:47PM 44.4650 -90.8969 301° West 423 487 34,000 -780 Level Minneapolis Center
08:48PM 44.5256 -91.0347 302° West 418 481 32,500 -2,100 Descending Minneapolis Center
08:50PM 44.6203 -91.2728 299° West 431 496 28,600 -2,460 Descending Chicago Center
08:50PM 44.6592 -91.3503 305° West 432 497 27,000 -2,400 Descending Minneapolis Center
08:51PM 44.7186 -91.4925 301° West 427 491 24,500 -2,340 Descending Minneapolis Center
08:52PM 44.7758 -91.6289 301° West 414 476 22,200 -2,520 Descending Minneapolis Center
08:53PM 44.8431 -91.7886 301° West 401 461 19,400 -2,340 Descending Minneapolis Center
08:55PM 44.8961 -91.9150 301° West 382 440 17,400 -2,040 Descending Minneapolis Center
08:56PM 44.9456 -92.0361 300° West 361 415 15,200 -2,100 Descending Minneapolis Center
08:57PM 44.9950 -92.1553 300° West 352 405 13,100 -2,040 Descending Minneapolis Center
08:58PM 45.0397 -92.2756 298° West 348 400 11,100 -1,020 Descending Minneapolis Center
08:59PM 45.0267 -92.4347 263° West 345 397 11,000 -60 Descending Minneapolis Center
09:00PM 45.0056 -92.5672 257° West 347 399 11,000  Level Minneapolis Center
09:01PM 44.9897 -92.6714 258° West 343 395 11,000  Level Minneapolis Center
09:02PM 44.9678 -92.8036 257° West 292 336 11,000 -240 Level Minneapolis Center
09:03PM 44.9497 -92.9122 257° West 287 330 10,500 -1,020 Descending Minneapolis Center
09:04PM 44.9319 -93.0208 257° West 286 329 8,900 -1,260 Descending Minneapolis Center
09:05PM 44.9564 -93.1303 288° West 252 290 8,000 -900 Descending Minneapolis Center
09:06PM 44.9897 -93.2061 302° West 230 265 6,900 -1,320 Descending Minneapolis Center
09:07PM 45.0394 -93.2844 312° West 224 258 5,000 -1,440 Descending Minneapolis Center
09:08PM 45.0681 -93.3511 301° West 210 242 4,000 -600 Descending Minneapolis Center
09:09PM 45.0175 -93.3611 188° South 181 208 3,800 -540 Descending Minneapolis Center
09:10PM 44.9742 -93.3353 157° South 170 196 3,000 -720 Descending Minneapolis Center
09:11PM 44.9339 -93.3094 156° South 160 184 2,300 -660 Descending Minneapolis Center
09:13PM 44.9111 -93.2628 125° Southeast 119 137 1,500 -660 Descending Minneapolis Center